• Join FlightAware (Why Join?)
  • Login
  • US Flag 
06:28PM EDT


 

Airport Tracker/Info


-or-


 

Live Flight TrackerFlight Track Log ✈ N244A ✈ 07-Mar-2014 ✈ KBED - KSSI

Flight Track Log - Related Links

Times and Time Zones

All times are in EST time to prevent confusion due to time zone crossing. See the N244A flight status page for this flight to view local times or setup timezone preferences in your user account.

Time Position Orientation Groundspeed Altitude Reporting Facility
EST Latitude Longitude Course Direction KTS MPH feet Rate Location/Type
04:09PM 42.4667 -71.3167 200° South 174 200 1,000  Level KA90
04:10PM 42.4333 -71.3333 200° South 217 250 3,700 3,000 Climbing KA90
04:11PM 42.3667 -71.3000 160° South 273 314 6,800 3,000 Climbing KA90
04:12PM 42.3333 -71.2000 114° Southeast 285 328 9,800 1,500 Climbing KA90
04:13PM 42.3000 -71.0833 111° Southeast 300 345 10,000 60 Climbing KA90
04:14PM 42.2833 -70.9833 103° East 295 339 10,000 540 Level KA90
04:15PM 42.2333 -70.9167 135° Southeast 322 371 11,100 1,920 Climbing KA90
04:16PM 42.1333 -70.8667 137° Southeast 366 421 13,700 1,560 Climbing KA90
04:17PM 42.0347 -70.8369 167° South 394 453 14,100 900 Climbing Boston Center
04:18PM 41.9308 -70.7911 162° South 445 512 15,500 1,920 Climbing Boston Center
04:19PM 41.8133 -70.7703 172° South 433 498 18,100 2,280 Climbing Boston Center
04:20PM 41.6914 -70.8578 208° Southwest 415 478 20,200 1,560 Climbing Boston Center
04:21PM 41.5875 -70.9442 212° Southwest 439 505 21,300 1,440 Climbing Boston Center
04:22PM 41.4822 -71.0325 212° Southwest 446 513 23,200 2,160 Climbing Boston Center
04:23PM 41.3822 -71.1178 213° Southwest 433 498 25,800 2,400 Climbing Boston Center
04:24PM 41.2933 -71.2050 216° Southwest 403 464 28,200 1,920 Climbing Boston Center
04:25PM 41.2089 -71.2969 219° Southwest 396 456 29,800 1,080 Climbing Boston Center
04:26PM 41.1419 -71.4181 234° Southwest 410 472 30,400 780 Climbing Boston Center
04:27PM 41.0606 -71.5706 235° Southwest 426 490 31,500 1,020 Climbing Boston Center
04:28PM 40.9908 -71.6939 233° Southwest 417 480 32,500 180 Climbing Boston Center
04:29PM 40.9206 -71.8139 232° Southwest 414 476 31,900 -300 Descending Boston Center
04:30PM 40.8367 -71.9219 224° Southwest 419 482 32,000  Climbing Boston Center
04:31PM 40.7600 -72.0219 225° Southwest 422 486 32,000 -60 Level Boston Center
04:32PM 40.6694 -72.1481 227° Southwest 430 495 31,900 -60 Descending Boston Center
04:33PM 40.5861 -72.2589 225° Southwest 426 490 31,900  Level Boston Center
04:34PM 40.5042 -72.3689 226° Southwest 424 488 31,900  Level Boston Center
04:35PM 40.4208 -72.4783 225° Southwest 424 488 31,900  Level Boston Center
04:36PM 40.3381 -72.5889 226° Southwest 425 489 31,900  Level Boston Center
04:38PM 40.2375 -72.7219 225° Southwest 428 493 31,900  Level Boston Center
04:39PM 40.1508 -72.8344 225° Southwest 428 493 32,000 60 Climbing Boston Center
04:40PM 40.0661 -72.9469 225° Southwest 432 497 32,100 600 Climbing Boston Center
04:40PM 39.9967 -73.0350 224° Southwest 434 499 33,200 960 Climbing Washington Center
04:42PM 39.9133 -73.1433 225° Southwest 429 494 34,000 360 Climbing Washington Center
04:42PM 39.8303 -73.2517 225° Southwest 424 488 34,000  Level Washington Center
04:43PM 39.7447 -73.3597 224° Southwest 424 488 34,000 -60 Level Washington Center
04:45PM 39.6592 -73.4594 222° Southwest 424 488 33,900 -60 Descending Washington Center
04:45PM 39.5628 -73.5511 216° Southwest 429 494 33,900  Level Washington Center
04:46PM 39.4683 -73.6478 218° Southwest 434 499 33,900  Level Washington Center
04:47PM 39.3742 -73.7444 218° Southwest 439 505 33,900  Level Washington Center
04:49PM 39.2797 -73.8406 218° Southwest 439 505 33,900  Level Washington Center
04:50PM 39.1831 -73.9394 218° Southwest 439 505 33,900  Level Washington Center
04:50PM 39.0886 -74.0325 217° Southwest 444 511 33,900  Level Washington Center
04:51PM 38.9961 -74.1306 219° Southwest 444 511 33,900  Level Washington Center
04:52PM 38.8992 -74.2258 217° Southwest 444 511 33,900  Level Washington Center
04:53PM 38.8044 -74.3236 219° Southwest 444 511 33,900  Level Washington Center
04:54PM 38.7094 -74.4183 218° Southwest 444 511 33,900  Level Washington Center
04:56PM 38.6144 -74.5131 218° Southwest 439 505 33,900  Level Washington Center
04:57PM 38.5192 -74.6044 217° Southwest 444 511 33,900  Level Washington Center
04:58PM 38.4242 -74.6986 218° Southwest 439 505 33,900  Level Washington Center
04:59PM 38.3308 -74.7925 218° Southwest 439 505 33,900  Level Washington Center
04:59PM 38.2356 -74.8858 218° Southwest 439 505 33,900  Level Washington Center
05:00PM 38.1444 -74.9819 220° Southwest 439 505 33,900  Level Washington Center
05:01PM 38.0447 -75.0697 215° Southwest 439 505 33,900  Level Washington Center
05:02PM 37.9514 -75.1625 218° Southwest 439 505 33,900  Level Washington Center
05:04PM 37.8578 -75.2578 219° Southwest 439 505 33,900  Level Washington Center
05:04PM 37.7619 -75.3503 217° Southwest 439 505 33,900  Level Washington Center
05:05PM 37.6619 -75.4422 216° Southwest 439 505 33,900  Level Washington Center
05:06PM 37.5683 -75.5369 219° Southwest 444 511 33,900  Level Washington Center
05:08PM 37.4703 -75.6258 216° Southwest 439 505 33,900  Level Washington Center
05:09PM 37.3742 -75.7200 218° Southwest 439 505 33,900  Level Washington Center
05:09PM 37.2781 -75.8111 217° Southwest 439 505 33,900  Level Washington Center
05:10PM 37.1800 -75.9022 217° Southwest 439 505 33,900  Level Washington Center
05:12PM 37.0836 -75.9928 217° Southwest 444 511 33,900  Level Washington Center
05:12PM 36.9875 -76.0858 218° Southwest 444 511 33,900  Level Washington Center
05:13PM 36.8869 -76.1839 218° Southwest 450 518 34,000  Climbing Washington Center
05:14PM 36.7903 -76.2844 220° Southwest 450 518 34,000 -60 Level Washington Center
05:15PM 36.6875 -76.3922 220° Southwest 455 524 33,900 -60 Descending Washington Center
05:17PM 36.5908 -76.4922 220° Southwest 455 524 33,900  Level Washington Center
05:18PM 36.4919 -76.5919 219° Southwest 455 524 33,900  Level Washington Center
05:19PM 36.3931 -76.6886 218° Southwest 455 524 33,900  Level Washington Center
05:19PM 36.2961 -76.7878 220° Southwest 455 524 33,900  Level Washington Center
05:20PM 36.1969 -76.8867 219° Southwest 455 524 33,900  Level Washington Center
05:22PM 36.1000 -76.9853 219° Southwest 455 524 33,900  Level Washington Center
05:23PM 36.0006 -77.0864 219° Southwest 455 524 33,900  Level Washington Center
05:23PM 35.9142 -77.1719 219° Southwest 450 518 34,000  Climbing Washington Center
05:24PM 35.8147 -77.2697 219° Southwest 455 524 34,000  Level Washington Center
05:26PM 35.7172 -77.3700 220° Southwest 455 524 34,000  Level Washington Center
05:27PM 35.6136 -77.4672 217° Southwest 460 529 34,000  Level Washington Center
05:27PM 35.5158 -77.5647 219° Southwest 460 529 34,000  Level Washington Center
05:28PM 35.4142 -77.6642 219° Southwest 460 529 34,000  Level Washington Center
05:29PM 35.3122 -77.7658 219° Southwest 465 535 34,000  Level Washington Center
05:30PM 35.2017 -77.8747 219° Southwest 465 535 34,000  Level Washington Center
05:31PM 35.0994 -77.9733 218° Southwest 470 541 34,000  Level Washington Center
05:32PM 34.9975 -78.0692 218° Southwest 470 541 34,000  Level Washington Center
05:33PM 34.8953 -78.1647 217° Southwest 475 547 34,000 -60 Level Washington Center
05:35PM 34.7119 -78.3492 220° Southwest 481 554 33,900  Descending Jacksonville Center
05:36PM 34.5969 -78.4536 217° Southwest 476 548 34,000  Climbing Jacksonville Center
05:37PM 34.4981 -78.5469 218° Southwest 471 542 34,000 -60 Level Jacksonville Center
05:38PM 34.4094 -78.6394 221° Southwest 471 542 33,900 -60 Descending Jacksonville Center
05:39PM 34.3083 -78.7347 218° Southwest 466 536 33,900  Level Jacksonville Center
05:40PM 34.2092 -78.8275 218° Southwest 466 536 33,900  Level Jacksonville Center
05:41PM 34.1078 -78.9200 217° Southwest 466 536 33,900  Level Jacksonville Center
05:42PM 34.0061 -79.0122 217° Southwest 466 536 33,900  Level Jacksonville Center
05:43PM 33.9050 -79.1092 219° Southwest 466 536 33,900  Level Jacksonville Center
05:44PM 33.8033 -79.2011 217° Southwest 471 542 33,900  Level Jacksonville Center
05:45PM 33.6975 -79.2978 217° Southwest 471 542 33,900  Level Jacksonville Center
05:46PM 33.5981 -79.3942 219° Southwest 459 528 33,900  Level Jacksonville Center
05:47PM 33.4961 -79.4856 217° Southwest 459 528 33,900  Level Jacksonville Center
05:48PM 33.3944 -79.5789 217° Southwest 459 528 33,900  Level Jacksonville Center
05:49PM 33.2944 -79.6719 218° Southwest 459 528 33,900  Level Jacksonville Center
05:50PM 33.1944 -79.7625 217° Southwest 459 528 33,900  Level Jacksonville Center
05:51PM 33.0925 -79.8578 218° Southwest 459 528 33,900  Level Jacksonville Center
05:52PM 33.0006 -79.9378 216° Southwest 459 528 33,900 -180 Level Jacksonville Center
05:53PM 32.8983 -80.0303 217° Southwest 459 528 33,600 -3,900 Descending Jacksonville Center
05:54PM 32.7939 -80.1247 217° Southwest 466 536 26,200 -4,860 Descending Jacksonville Center
05:55PM 32.6767 -80.2125 212° Southwest 485 558 23,900 -1,320 Descending Jacksonville Center
05:56PM 32.5639 -80.2994 213° Southwest 496 571 23,600 -2,100 Descending Jacksonville Center
05:57PM 32.4611 -80.3811 214° Southwest 477 549 19,800 -6,300 Descending Jacksonville Center
05:58PM 32.3644 -80.4578 214° Southwest 448 516 11,000 -4,320 Descending Jacksonville Center
05:59PM 32.2739 -80.5289 214° Southwest 420 483 11,200 -60 Climbing Jacksonville Center
06:00PM 32.1772 -80.6025 213° Southwest 408 470 10,900 -120 Descending Jacksonville Center
06:01PM 32.0722 -80.6886 215° Southwest 414 476 11,000  Climbing Jacksonville Center
06:02PM 31.9753 -80.7644 214° Southwest 428 493 11,000  Level Jacksonville Center
06:03PM 31.8867 -80.8300 212° Southwest 438 504 11,000  Level Jacksonville Center
06:04PM 31.7794 -80.9131 213° Southwest 427 491 11,000 -660 Level Jacksonville Center
06:05PM 31.7050 -80.9658 211° Southwest 347 399 9,700 -2,220 Descending Jacksonville Center
06:06PM 31.6392 -81.0233 217° Southwest 297 342 6,600 -2,880 Descending Jacksonville Center
06:07PM 31.5772 -81.0708 213° Southwest 303 349 4,000 -1,320 Descending Jacksonville Center
06:08PM 31.5069 -81.1211 211° Southwest 293 337 4,000 -300 Level Jacksonville Center
06:09PM 31.4367 -81.1758 214° Southwest 293 337 3,400 -960 Descending Jacksonville Center
06:10PM 31.3767 -81.2233 214° Southwest 283 326 2,100 -660 Descending Jacksonville Center
06:11PM 31.3189 -81.2656 212° Southwest 253 291 2,100  Level Jacksonville Center